Time;durP1;ratioP1;P1;durP2;ratioP2;P2;SDS_P1;SDS_P2;PMS_P1;PMS_P2;Temp;Humidity;BMP_temperature;BMP_pressure;BME280_temperature;BME280_humidity;BME280_pressure;Samples;Min_cycle;Max_cycle;Signal;HPM_P1;HPM_P2
2023/07/07 00:00:24;;;;;;;7.75;5.22;;;;;;;;;;5039879;28;20050;-76
2023/07/07 00:02:51;;;;;;;7.85;5.63;;;;;;;;;;5034823;28;20045;-77
2023/07/07 00:05:19;;;;;;;8.32;5.50;;;;;;;;;;5033707;28;20412;-76
2023/07/07 00:07:48;;;;;;;9.32;6.07;;;;;;;;;;5034401;28;20045;-77
2023/07/07 00:10:15;;;;;;;8.85;5.63;;;;;;;;;;5035480;28;20089;-78
2023/07/07 00:12:42;;;;;;;8.93;5.80;;;;;;;;;;5034492;28;20128;-77
2023/07/07 00:15:10;;;;;;;9.30;5.60;;;;;;;;;;5034301;28;20124;-77
2023/07/07 00:17:37;;;;;;;8.20;5.35;;;;;;;;;;5034201;28;20140;-78
2023/07/07 00:20:08;;;;;;;8.43;5.57;;;;;;;;;;5033900;28;20073;-78
2023/07/07 00:22:35;;;;;;;10.02;5.55;;;;;;;;;;5033845;28;20092;-77
2023/07/07 00:25:01;;;;;;;8.95;5.05;;;;;;;;;;5033462;28;20056;-76
2023/07/07 00:27:28;;;;;;;9.05;5.28;;;;;;;;;;5034057;28;20046;-77
2023/07/07 00:29:55;;;;;;;8.68;5.53;;;;;;;;;;5034179;28;20053;-77
2023/07/07 00:32:23;;;;;;;8.48;5.70;;;;;;;;;;5033740;28;20479;-77
2023/07/07 00:34:49;;;;;;;8.95;5.72;;;;;;;;;;5032728;28;20088;-77
2023/07/07 00:37:16;;;;;;;7.40;5.53;;;;;;;;;;5032679;28;20055;-78
2023/07/07 00:39:43;;;;;;;8.13;5.80;;;;;;;;;;5033728;28;20132;-78
2023/07/07 00:42:10;;;;;;;9.85;5.55;;;;;;;;;;5032867;28;20748;-77
2023/07/07 00:45:10;;;;;;;8.45;5.43;;;;;;;;;;5032303;28;20050;-77
2023/07/07 00:47:42;;;;;;;6.80;4.77;;;;;;;;;;5024169;28;20092;-77
2023/07/07 00:50:11;;;;;;;8.10;5.72;;;;;;;;;;5032324;28;20563;-76
2023/07/07 00:52:42;;;;;;;9.05;5.88;;;;;;;;;;5033106;28;20128;-78
2023/07/07 00:55:12;;;;;;;9.55;5.50;;;;;;;;;;5032943;28;20515;-77
2023/07/07 00:57:39;;;;;;;9.67;5.40;;;;;;;;;;5032282;28;20056;-77
2023/07/07 01:00:07;;;;;;;9.57;6.00;;;;;;;;;;5033297;28;20285;-78
2023/07/07 01:02:34;;;;;;;9.13;5.63;;;;;;;;;;5033151;28;20045;-77
2023/07/07 01:05:05;;;;;;;9.63;6.20;;;;;;;;;;5033246;28;20046;-78
2023/07/07 01:07:36;;;;;;;8.73;5.32;;;;;;;;;;5032614;28;20496;-78
2023/07/07 01:10:02;;;;;;;8.82;5.15;;;;;;;;;;5033121;28;20395;-77
2023/07/07 01:12:29;;;;;;;8.02;5.28;;;;;;;;;;5032703;28;20045;-77
2023/07/07 01:14:56;;;;;;;8.32;5.63;;;;;;;;;;5032358;28;20432;-78
2023/07/07 01:17:32;;;;;;;8.13;4.93;;;;;;;;;;5032064;28;20580;-77
2023/07/07 01:20:30;;;;;;;9.50;5.05;;;;;;;;;;5032874;28;20137;-77
2023/07/07 01:23:29;;;;;;;7.47;4.95;;;;;;;;;;5031879;28;20132;-77
2023/07/07 01:26:37;;;;;;;7.07;4.82;;;;;;;;;;5032613;28;20145;-79
2023/07/07 01:29:38;;;;;;;9.15;5.40;;;;;;;;;;4971373;28;20134;-78
2023/07/07 01:32:10;;;;;;;7.88;4.32;;;;;;;;;;5012814;28;20049;-77
2023/07/07 01:34:37;;;;;;;7.70;4.88;;;;;;;;;;5025934;28;20084;-77
2023/07/07 01:37:04;;;;;;;7.15;4.88;;;;;;;;;;5032516;28;20598;-77
2023/07/07 01:39:31;;;;;;;8.57;5.25;;;;;;;;;;5032751;28;20058;-77
2023/07/07 01:42:01;;;;;;;7.90;5.28;;;;;;;;;;5032432;28;20049;-77
2023/07/07 01:44:33;;;;;;;8.03;4.77;;;;;;;;;;5032793;28;20120;-77
2023/07/07 01:47:12;;;;;;;10.15;5.10;;;;;;;;;;5032875;28;20334;-77
2023/07/07 01:49:43;;;;;;;7.28;4.80;;;;;;;;;;5033281;28;20132;-77
2023/07/07 01:52:16;;;;;;;8.20;4.85;;;;;;;;;;5032848;28;20117;-77
2023/07/07 01:54:46;;;;;;;7.22;4.85;;;;;;;;;;5032346;28;20080;-77
2023/07/07 01:57:14;;;;;;;8.27;5.00;;;;;;;;;;5032051;28;20045;-78
2023/07/07 01:59:42;;;;;;;6.70;5.10;;;;;;;;;;5032133;28;20051;-78
2023/07/07 02:02:11;;;;;;;7.85;5.20;;;;;;;;;;5031943;28;20046;-79
2023/07/07 02:04:37;;;;;;;9.13;5.35;;;;;;;;;;5031910;28;20416;-78
2023/07/07 02:07:04;;;;;;;6.65;4.43;;;;;;;;;;5030892;28;20128;-77
2023/07/07 02:09:31;;;;;;;6.47;4.30;;;;;;;;;;5027956;28;20140;-77
2023/07/07 02:11:58;;;;;;;6.93;4.18;;;;;;;;;;5028571;28;20076;-77
2023/07/07 02:14:24;;;;;;;6.80;4.53;;;;;;;;;;5028504;28;20137;-78
2023/07/07 02:16:51;;;;;;;7.68;4.43;;;;;;;;;;5029391;28;20053;-77
2023/07/07 02:19:19;;;;;;;6.90;4.22;;;;;;;;;;5029066;28;20124;-77
2023/07/07 02:21:46;;;;;;;6.93;4.45;;;;;;;;;;5028837;28;20069;-78
2023/07/07 02:24:12;;;;;;;6.75;4.47;;;;;;;;;;5029098;28;20412;-77
2023/07/07 02:26:39;;;;;;;8.13;4.82;;;;;;;;;;5029962;28;20060;-77
2023/07/07 02:29:06;;;;;;;7.75;4.80;;;;;;;;;;5030999;28;20053;-77
2023/07/07 02:31:32;;;;;;;8.48;4.53;;;;;;;;;;5034422;28;20046;-77
2023/07/07 02:33:59;;;;;;;7.20;4.25;;;;;;;;;;5030133;28;20052;-77
2023/07/07 02:36:27;;;;;;;6.85;4.30;;;;;;;;;;5028673;28;20132;-77
2023/07/07 02:38:54;;;;;;;6.88;4.60;;;;;;;;;;5028484;28;20144;-77
2023/07/07 02:41:21;;;;;;;7.78;4.30;;;;;;;;;;5029504;28;20499;-77
2023/07/07 02:43:48;;;;;;;9.48;4.07;;;;;;;;;;5029149;28;20536;-77
2023/07/07 02:46:15;;;;;;;7.22;3.95;;;;;;;;;;5029357;28;20128;-77
2023/07/07 02:48:41;;;;;;;8.48;4.43;;;;;;;;;;5028475;28;20045;-77
2023/07/07 02:51:08;;;;;;;6.75;3.90;;;;;;;;;;5028505;28;20481;-75
2023/07/07 02:53:37;;;;;;;7.32;4.13;;;;;;;;;;5028147;28;20495;-76
2023/07/07 02:56:05;;;;;;;7.07;3.90;;;;;;;;;;5028367;28;20129;-76
2023/07/07 02:58:32;;;;;;;6.95;4.10;;;;;;;;;;5029016;28;20069;-77
2023/07/07 03:01:10;;;;;;;6.85;3.67;;;;;;;;;;5030437;28;20037;-76
2023/07/07 03:03:39;;;;;;;6.80;4.10;;;;;;;;;;5032413;28;20551;-77
2023/07/07 03:06:07;;;;;;;6.55;3.88;;;;;;;;;;5031021;28;20072;-77
2023/07/07 03:08:35;;;;;;;7.57;4.38;;;;;;;;;;5032025;28;20132;-76
2023/07/07 03:11:06;;;;;;;7.07;4.05;;;;;;;;;;5030256;28;20103;-76
2023/07/07 03:13:32;;;;;;;;;;;;;;;;;;5033319;28;20510;-76
2023/07/07 03:15:59;;;;;;;6.60;4.05;;;;;;;;;;5032712;28;19995;-76
2023/07/07 03:18:26;;;;;;;7.95;4.00;;;;;;;;;;5032101;28;20077;-77
2023/07/07 03:20:53;;;;;;;7.20;4.10;;;;;;;;;;5032806;28;20081;-77
2023/07/07 03:23:19;;;;;;;6.72;3.80;;;;;;;;;;5032092;28;20129;-77
2023/07/07 03:25:47;;;;;;;6.93;3.88;;;;;;;;;;5032176;28;20428;-77
2023/07/07 03:28:14;;;;;;;7.60;4.00;;;;;;;;;;5032594;28;20117;-78
2023/07/07 03:30:41;;;;;;;7.82;4.05;;;;;;;;;;5030012;28;20072;-77
2023/07/07 03:33:08;;;;;;;6.70;3.95;;;;;;;;;;5032478;28;20133;-77
2023/07/07 03:35:34;;;;;;;6.35;4.20;;;;;;;;;;5032339;28;20045;-77
2023/07/07 03:38:01;;;;;;;6.20;3.80;;;;;;;;;;5033062;28;20152;-77
2023/07/07 03:40:28;;;;;;;8.57;4.22;;;;;;;;;;5032289;28;20041;-77
2023/07/07 03:42:56;;;;;;;6.03;3.75;;;;;;;;;;5031891;28;20401;-79
2023/07/07 03:45:25;;;;;;;7.15;3.78;;;;;;;;;;5031654;28;20109;-79
2023/07/07 03:47:52;;;;;;;8.52;3.97;;;;;;;;;;5033084;28;20060;-79
2023/07/07 03:50:19;;;;;;;7.50;4.10;;;;;;;;;;5033666;28;20728;-79
2023/07/07 03:52:45;;;;;;;7.00;3.97;;;;;;;;;;5033518;28;20500;-77
2023/07/07 03:55:12;;;;;;;6.82;3.83;;;;;;;;;;5032265;28;20053;-79
2023/07/07 03:57:39;;;;;;;7.93;4.40;;;;;;;;;;5033141;28;20065;-79
2023/07/07 04:00:08;;;;;;;7.07;4.30;;;;;;;;;;5033657;28;20053;-79
2023/07/07 04:02:35;;;;;;;8.23;4.70;;;;;;;;;;5014942;28;20065;-79
2023/07/07 04:05:02;;;;;;;6.78;4.18;;;;;;;;;;5032603;28;20049;-79
2023/07/07 04:07:29;;;;;;;7.90;3.83;;;;;;;;;;5033902;28;20065;-79
2023/07/07 04:09:55;;;;;;;7.28;3.88;;;;;;;;;;5033056;28;20041;-79
2023/07/07 04:12:22;;;;;;;6.38;3.85;;;;;;;;;;5038445;28;20072;-77
2023/07/07 04:14:48;;;;;;;7.28;3.72;;;;;;;;;;5041981;28;20080;-79
2023/07/07 04:17:16;;;;;;;7.38;3.90;;;;;;;;;;5042576;28;20045;-78
2023/07/07 04:19:43;;;;;;;8.20;4.00;;;;;;;;;;5040837;28;20568;-78
2023/07/07 04:22:10;;;;;;;6.82;3.70;;;;;;;;;;5033689;28;20128;-77
2023/07/07 04:24:37;;;;;;;6.97;4.25;;;;;;;;;;5031988;28;20483;-77
2023/07/07 04:27:04;;;;;;;7.63;3.67;;;;;;;;;;5032486;28;20045;-77
2023/07/07 04:29:31;;;;;;;8.43;4.18;;;;;;;;;;5031398;28;20045;-78
2023/07/07 04:31:59;;;;;;;7.47;4.53;;;;;;;;;;5031362;28;20057;-78
2023/07/07 04:34:27;;;;;;;6.55;3.75;;;;;;;;;;5034463;28;20045;-78
2023/07/07 04:36:54;;;;;;;7.72;3.80;;;;;;;;;;5030214;28;20044;-79
2023/07/07 04:39:21;;;;;;;7.95;4.05;;;;;;;;;;5036324;28;20075;-78
2023/07/07 04:41:50;;;;;;;9.20;4.38;;;;;;;;;;5035826;28;20479;-77
2023/07/07 04:44:17;;;;;;;9.23;4.88;;;;;;;;;;5035724;28;20041;-78
2023/07/07 04:46:43;;;;;;;6.63;4.07;;;;;;;;;;5035303;28;20132;-78
2023/07/07 04:49:11;;;;;;;6.82;4.20;;;;;;;;;;5034701;28;20052;-77
2023/07/07 04:51:41;;;;;;;7.88;3.95;;;;;;;;;;5034887;28;20064;-77
2023/07/07 04:54:11;;;;;;;;;;;;;;;;;;5036092;28;20582;-77
2023/07/07 04:56:37;;;;;;;6.73;4.03;;;;;;;;;;5036459;28;19921;-76
2023/07/07 04:59:06;;;;;;;7.50;3.78;;;;;;;;;;5036235;28;20132;-77
2023/07/07 05:01:33;;;;;;;6.97;3.90;;;;;;;;;;5036233;28;20514;-77
2023/07/07 05:04:02;;;;;;;7.78;3.95;;;;;;;;;;5034661;28;20477;-77
2023/07/07 05:06:30;;;;;;;6.72;3.47;;;;;;;;;;5033953;28;20427;-77
2023/07/07 05:09:01;;;;;;;6.70;3.63;;;;;;;;;;5034662;28;20408;-77
2023/07/07 05:11:29;;;;;;;6.18;3.58;;;;;;;;;;5034298;28;20413;-77
2023/07/07 05:13:56;;;;;;;6.90;4.15;;;;;;;;;;5032982;28;20041;-76
2023/07/07 05:16:24;;;;;;;8.23;4.65;;;;;;;;;;5033358;28;20060;-77
2023/07/07 05:18:52;;;;;;;8.20;5.00;;;;;;;;;;5034879;28;20049;-77
2023/07/07 05:21:20;;;;;;;6.93;3.97;;;;;;;;;;5039054;28;20046;-77
2023/07/07 05:23:47;;;;;;;6.53;3.40;;;;;;;;;;5035091;28;20136;-78
2023/07/07 05:26:15;;;;;;;14.73;5.72;;;;;;;;;;5036037;28;20519;-78
2023/07/07 05:28:42;;;;;;;12.00;4.90;;;;;;;;;;5043787;28;20053;-78
2023/07/07 05:31:09;;;;;;;12.85;4.82;;;;;;;;;;5046017;28;20080;-78
2023/07/07 05:33:38;;;;;;;7.05;4.05;;;;;;;;;;5045285;28;20041;-77
2023/07/07 05:36:08;;;;;;;6.93;3.80;;;;;;;;;;5041712;28;20049;-78
2023/07/07 05:38:35;;;;;;;6.70;3.42;;;;;;;;;;5044825;28;20653;-77
2023/07/07 05:41:02;;;;;;;7.20;4.10;;;;;;;;;;5042266;28;20050;-78
2023/07/07 05:43:30;;;;;;;8.73;3.85;;;;;;;;;;5038858;28;20077;-77
2023/07/07 05:45:57;;;;;;;7.10;3.55;;;;;;;;;;5034403;28;20051;-76
2023/07/07 05:48:24;;;;;;;7.57;4.03;;;;;;;;;;5034435;28;20139;-77
2023/07/07 05:50:53;;;;;;;8.10;4.15;;;;;;;;;;5027152;28;20469;-78
2023/07/07 05:53:19;;;;;;;6.45;3.65;;;;;;;;;;5032446;28;20192;-77
2023/07/07 05:55:47;;;;;;;6.40;3.60;;;;;;;;;;5031723;28;20551;-78
2023/07/07 05:58:14;;;;;;;6.15;3.70;;;;;;;;;;5030422;28;20037;-78
2023/07/07 06:00:43;;;;;;;7.45;4.32;;;;;;;;;;5031798;28;20128;-77
2023/07/07 06:03:10;;;;;;;8.48;4.00;;;;;;;;;;5035337;28;20103;-80
2023/07/07 06:05:37;;;;;;;8.85;4.20;;;;;;;;;;5034084;28;20049;-78
2023/07/07 06:08:05;;;;;;;6.82;3.83;;;;;;;;;;5034499;28;20432;-77
2023/07/07 06:10:32;;;;;;;7.57;4.18;;;;;;;;;;5034633;28;20088;-77
2023/07/07 06:13:00;;;;;;;12.10;6.75;;;;;;;;;;5035101;28;20439;-77
2023/07/07 06:15:27;;;;;;;13.48;7.28;;;;;;;;;;5033683;28;20073;-78
2023/07/07 06:17:55;;;;;;;23.58;12.77;;;;;;;;;;5033654;28;20147;-78
2023/07/07 06:20:22;;;;;;;10.30;5.55;;;;;;;;;;5034663;28;20132;-78
2023/07/07 06:22:48;;;;;;;14.80;7.22;;;;;;;;;;5036181;28;20128;-77
2023/07/07 06:25:15;;;;;;;8.00;4.15;;;;;;;;;;5034026;28;20473;-78
2023/07/07 06:27:42;;;;;;;6.80;4.10;;;;;;;;;;5034080;28;20406;-77
2023/07/07 06:30:10;;;;;;;7.40;3.50;;;;;;;;;;5034182;28;20060;-77
2023/07/07 06:32:37;;;;;;;6.93;3.42;;;;;;;;;;5034258;28;20084;-79
2023/07/07 06:35:05;;;;;;;8.00;3.85;;;;;;;;;;5037111;28;20079;-77
2023/07/07 06:37:32;;;;;;;8.00;3.80;;;;;;;;;;5038242;28;20049;-78
2023/07/07 06:39:58;;;;;;;6.93;3.70;;;;;;;;;;5037947;28;20081;-76
2023/07/07 06:42:25;;;;;;;6.57;3.72;;;;;;;;;;5036267;28;20056;-76
2023/07/07 06:44:52;;;;;;;6.95;3.78;;;;;;;;;;5024384;28;20159;-77
2023/07/07 06:47:19;;;;;;;6.78;3.83;;;;;;;;;;5026119;28;20056;-78
2023/07/07 06:49:45;;;;;;;6.43;3.38;;;;;;;;;;5037254;28;20059;-77
2023/07/07 06:52:13;;;;;;;6.68;3.20;;;;;;;;;;5036289;28;20046;-77
2023/07/07 06:54:40;;;;;;;7.15;3.83;;;;;;;;;;5032910;28;20048;-77
2023/07/07 06:57:07;;;;;;;6.95;3.50;;;;;;;;;;5036278;28;20073;-78
2023/07/07 06:59:37;;;;;;;7.30;3.78;;;;;;;;;;5026261;28;20059;-78
2023/07/07 07:02:04;;;;;;;6.40;3.90;;;;;;;;;;5038442;28;20128;-77
2023/07/07 07:04:30;;;;;;;6.05;3.40;;;;;;;;;;5044840;28;20079;-77
2023/07/07 07:06:57;;;;;;;6.05;3.40;;;;;;;;;;5035218;28;20050;-77
2023/07/07 07:09:25;;;;;;;7.32;3.70;;;;;;;;;;5034290;28;20049;-78
2023/07/07 07:11:51;;;;;;;6.15;3.60;;;;;;;;;;5033787;28;20046;-77
2023/07/07 07:14:18;;;;;;;6.47;3.47;;;;;;;;;;5030217;28;20049;-77
2023/07/07 07:16:45;;;;;;;8.63;3.80;;;;;;;;;;5033466;28;20046;-78
2023/07/07 07:19:11;;;;;;;7.57;4.00;;;;;;;;;;5033272;28;20492;-78
2023/07/07 07:21:38;;;;;;;7.53;3.42;;;;;;;;;;5033399;28;20132;-78
2023/07/07 07:24:05;;;;;;;6.80;3.53;;;;;;;;;;5031241;28;20054;-78
2023/07/07 07:26:33;;;;;;;6.53;3.72;;;;;;;;;;5034403;28;20057;-78
2023/07/07 07:29:00;;;;;;;7.78;4.20;;;;;;;;;;5034680;28;20056;-78
2023/07/07 07:31:27;;;;;;;11.05;3.67;;;;;;;;;;5033125;28;20485;-78
2023/07/07 07:33:55;;;;;;;7.88;4.15;;;;;;;;;;5032912;28;20053;-78
2023/07/07 07:36:23;;;;;;;6.07;3.45;;;;;;;;;;5033032;28;20045;-78
2023/07/07 07:38:49;;;;;;;5.43;3.22;;;;;;;;;;5033393;28;20124;-78
2023/07/07 07:41:16;;;;;;;5.95;3.30;;;;;;;;;;5034854;28;20049;-78
2023/07/07 07:43:44;;;;;;;7.18;3.72;;;;;;;;;;5034427;28;20047;-78
2023/07/07 07:46:11;;;;;;;5.93;3.65;;;;;;;;;;5033068;28;20080;-78
2023/07/07 07:48:38;;;;;;;6.97;4.18;;;;;;;;;;5033868;28;20085;-78
2023/07/07 07:51:04;;;;;;;6.57;3.90;;;;;;;;;;5033756;28;20081;-78
2023/07/07 07:53:31;;;;;;;6.90;3.70;;;;;;;;;;5034565;28;20061;-78
2023/07/07 07:55:58;;;;;;;6.22;3.88;;;;;;;;;;5025607;28;20046;-78
2023/07/07 07:58:25;;;;;;;6.22;3.78;;;;;;;;;;5033970;28;20534;-78
2023/07/07 08:00:53;;;;;;;6.63;3.50;;;;;;;;;;5034315;28;20143;-78
2023/07/07 08:03:19;;;;;;;8.65;3.72;;;;;;;;;;5034067;28;20124;-78
2023/07/07 08:05:46;;;;;;;7.32;3.78;;;;;;;;;;5033379;28;20608;-78
2023/07/07 08:08:15;;;;;;;7.57;4.32;;;;;;;;;;5068826;22;20041;-79
2023/07/07 08:10:41;;;;;;;7.25;4.00;;;;;;;;;;5056920;28;20041;-76
2023/07/07 08:13:08;;;;;;;6.85;3.97;;;;;;;;;;5059999;28;20041;-76
2023/07/07 08:15:35;;;;;;;7.50;4.03;;;;;;;;;;5059378;28;20087;-77
2023/07/07 08:18:03;;;;;;;7.38;3.95;;;;;;;;;;5059062;28;20056;-77
2023/07/07 08:20:32;;;;;;;7.63;3.72;;;;;;;;;;5056671;28;20499;-77
2023/07/07 08:22:58;;;;;;;6.22;3.60;;;;;;;;;;5049419;28;20041;-77
2023/07/07 08:25:27;;;;;;;5.90;3.63;;;;;;;;;;5057488;28;20250;-76
2023/07/07 08:27:54;;;;;;;7.93;3.78;;;;;;;;;;5058288;28;20041;-76
2023/07/07 08:30:22;;;;;;;6.95;3.67;;;;;;;;;;5056755;28;20053;-78
2023/07/07 08:32:50;;;;;;;6.55;3.63;;;;;;;;;;5057150;28;20128;-77
2023/07/07 08:35:18;;;;;;;6.75;4.00;;;;;;;;;;5054559;28;20099;-77
2023/07/07 08:37:45;;;;;;;6.88;3.78;;;;;;;;;;5056942;28;20131;-78
2023/07/07 08:40:21;;;;;;;5.40;3.53;;;;;;;;;;5056267;28;20045;-78
2023/07/07 08:42:48;;;;;;;7.53;3.97;;;;;;;;;;5057546;28;20045;-84
2023/07/07 08:45:16;;;;;;;9.95;4.07;;;;;;;;;;5055337;28;20062;-80
2023/07/07 08:47:53;;;;;;;6.68;3.35;;;;;;;;;;5056774;28;20045;-82
2023/07/07 08:50:30;;;;;;;5.72;3.55;;;;;;;;;;5052378;28;20049;-80
2023/07/07 08:53:05;;;;;;;10.43;3.65;;;;;;;;;;5041207;28;20067;-85
2023/07/07 08:56:00;;;;;;;8.25;3.92;;;;;;;;;;5058634;28;20239;-82
2023/07/07 08:58:35;;;;;;;7.07;4.28;;;;;;;;;;5058940;28;20136;-84
2023/07/07 09:01:19;;;;;;;6.97;3.90;;;;;;;;;;5058042;28;20137;-87
2023/07/07 09:03:58;;;;;;;7.22;3.75;;;;;;;;;;5050689;28;20076;-77
2023/07/07 09:06:36;;;;;;;6.53;3.85;;;;;;;;;;5051448;28;20140;-77
2023/07/07 09:09:11;;;;;;;6.88;3.80;;;;;;;;;;5051615;28;20124;-78
2023/07/07 09:12:02;;;;;;;7.07;3.75;;;;;;;;;;5045277;28;20143;-80
2023/07/07 09:14:29;;;;;;;7.93;4.10;;;;;;;;;;5053638;28;20124;-78
2023/07/07 09:16:58;;;;;;;6.90;3.85;;;;;;;;;;5052560;28;20124;-78
2023/07/07 09:19:30;;;;;;;7.32;3.70;;;;;;;;;;5051258;28;20113;-78
2023/07/07 09:22:02;;;;;;;5.72;3.75;;;;;;;;;;5044494;28;20044;-79
2023/07/07 09:24:33;;;;;;;7.93;4.38;;;;;;;;;;5052146;28;20036;-80
2023/07/07 09:27:08;;;;;;;7.32;3.90;;;;;;;;;;5053312;28;20056;-79
2023/07/07 09:29:35;;;;;;;7.45;5.05;;;;;;;;;;5055997;28;20048;-79
2023/07/07 09:32:03;;;;;;;7.47;4.35;;;;;;;;;;5056471;28;20053;-77
2023/07/07 09:34:32;;;;;;;6.90;3.63;;;;;;;;;;5070906;28;20045;-79
2023/07/07 09:37:07;;;;;;;6.72;3.97;;;;;;;;;;5057141;28;20079;-80
2023/07/07 09:40:04;;;;;;;8.85;4.55;;;;;;;;;;5058140;28;20075;-82
2023/07/07 09:42:42;;;;;;;8.02;3.60;;;;;;;;;;5054390;28;20048;-78
2023/07/07 09:45:29;;;;;;;7.53;4.00;;;;;;;;;;5044990;28;20068;-80
2023/07/07 09:48:08;;;;;;;6.95;3.65;;;;;;;;;;5048027;28;20053;-80
2023/07/07 09:50:40;;;;;;;6.85;3.78;;;;;;;;;;5043016;28;20562;-81
2023/07/07 09:53:15;;;;;;;7.38;4.00;;;;;;;;;;5054985;28;20082;-79
2023/07/07 09:55:42;;;;;;;10.27;4.80;;;;;;;;;;5040668;28;20052;-79
2023/07/07 09:58:15;;;;;;;9.07;6.28;;;;;;;;;;5034730;28;20432;-79
2023/07/07 10:00:47;;;;;;;9.20;4.75;;;;;;;;;;5043337;28;20521;-80
2023/07/07 10:03:21;;;;;;;6.57;4.15;;;;;;;;;;5054096;28;20056;-78
2023/07/07 10:05:50;;;;;;;8.90;4.60;;;;;;;;;;5062892;28;20088;-78
2023/07/07 10:08:18;;;;;;;7.55;4.97;;;;;;;;;;5059904;28;20080;-77
2023/07/07 10:10:44;;;;;;;5.95;3.97;;;;;;;;;;5055674;28;20072;-78
2023/07/07 10:13:14;;;;;;;7.40;4.57;;;;;;;;;;5039602;28;20128;-79
2023/07/07 10:15:54;;;;;;;8.35;4.10;;;;;;;;;;5047357;28;20049;-78
2023/07/07 10:18:23;;;;;;;7.88;4.65;;;;;;;;;;5056975;28;20455;-78
2023/07/07 10:20:51;;;;;;;6.32;4.22;;;;;;;;;;5056762;28;20049;-80
2023/07/07 10:23:19;;;;;;;8.25;4.22;;;;;;;;;;5053433;28;20451;-79
2023/07/07 10:25:47;;;;;;;5.93;3.70;;;;;;;;;;5057420;28;20180;-79
2023/07/07 10:28:17;;;;;;;6.38;4.10;;;;;;;;;;5058915;28;20045;-80
2023/07/07 10:30:44;;;;;;;6.95;4.10;;;;;;;;;;5057587;28;20140;-78
2023/07/07 10:33:13;;;;;;;8.88;4.68;;;;;;;;;;5058561;28;20083;-78
2023/07/07 10:35:40;;;;;;;7.18;4.30;;;;;;;;;;5048703;28;20045;-79
2023/07/07 10:38:10;;;;;;;6.68;4.30;;;;;;;;;;5056761;28;20056;-79
2023/07/07 10:40:41;;;;;;;7.50;4.70;;;;;;;;;;5055812;28;20140;-80
2023/07/07 10:43:14;;;;;;;7.53;4.80;;;;;;;;;;5056215;28;20064;-79
2023/07/07 10:45:45;;;;;;;6.88;4.55;;;;;;;;;;5054583;28;20102;-77
2023/07/07 10:48:13;;;;;;;6.85;4.22;;;;;;;;;;5056893;28;20045;-76
2023/07/07 10:50:52;;;;;;;8.85;5.00;;;;;;;;;;5055364;28;20442;-79
2023/07/07 10:53:28;;;;;;;8.35;4.95;;;;;;;;;;5055470;28;20041;-78
2023/07/07 10:56:14;;;;;;;7.80;5.20;;;;;;;;;;5056227;28;20056;-79
2023/07/07 10:59:00;;;;;;;8.20;4.95;;;;;;;;;;5057835;28;20045;-78
2023/07/07 11:01:35;;;;;;;6.65;4.07;;;;;;;;;;5051704;28;20080;-78
2023/07/07 11:04:31;;;;;;;6.78;4.40;;;;;;;;;;5058299;28;20051;-80
2023/07/07 11:07:11;;;;;;;7.65;4.63;;;;;;;;;;5055083;28;20053;-78
2023/07/07 11:09:55;;;;;;;7.85;4.75;;;;;;;;;;5055032;28;20057;-81
2023/07/07 11:12:29;;;;;;;8.68;5.72;;;;;;;;;;5057707;28;20037;-79
2023/07/07 11:15:03;;;;;;;7.05;4.97;;;;;;;;;;5055347;28;20538;-78
2023/07/07 11:17:51;;;;;;;8.07;5.72;;;;;;;;;;5060022;28;20045;-84
2023/07/07 11:20:32;;;;;;;9.40;5.57;;;;;;;;;;5056160;28;20075;-79
2023/07/07 11:23:15;;;;;;;7.82;4.95;;;;;;;;;;5057266;28;20080;-78
2023/07/07 11:25:50;;;;;;;9.60;5.22;;;;;;;;;;5053800;28;20052;-78
2023/07/07 11:28:33;;;;;;;7.07;4.63;;;;;;;;;;5055116;28;20122;-79
2023/07/07 11:31:18;;;;;;;8.15;4.97;;;;;;;;;;5055841;28;20069;-78
2023/07/07 11:33:53;;;;;;;8.52;5.50;;;;;;;;;;5055161;28;20041;-81
2023/07/07 11:36:37;;;;;;;7.82;5.25;;;;;;;;;;5051177;28;20084;-78
2023/07/07 11:39:18;;;;;;;7.78;4.93;;;;;;;;;;5049759;28;20466;-78
2023/07/07 11:41:58;;;;;;;8.25;5.03;;;;;;;;;;5055329;28;20075;-79
2023/07/07 11:44:32;;;;;;;;;;;;;;;;;;5054903;28;20060;-80
2023/07/07 11:47:27;;;;;;;9.10;5.57;;;;;;;;;;5054011;28;19975;-79
2023/07/07 11:50:17;;;;;;;8.70;5.43;;;;;;;;;;5036682;28;20073;-80
2023/07/07 11:53:01;;;;;;;8.25;4.90;;;;;;;;;;5055137;28;20052;-81
2023/07/07 11:55:46;;;;;;;8.43;5.50;;;;;;;;;;5055961;28;20099;-79
2023/07/07 11:58:26;;;;;;;8.25;5.22;;;;;;;;;;5054263;28;20049;-78
2023/07/07 12:00:59;;;;;;;7.70;4.97;;;;;;;;;;5054327;28;20462;-77
2023/07/07 12:03:36;;;;;;;7.88;5.50;;;;;;;;;;5054575;28;20056;-77
2023/07/07 12:06:11;;;;;;;7.55;5.60;;;;;;;;;;5053885;28;20102;-78
2023/07/07 12:08:45;;;;;;;8.05;5.15;;;;;;;;;;5055031;28;20053;-77
2023/07/07 12:11:14;;;;;;;9.60;5.20;;;;;;;;;;5056092;28;20049;-78
2023/07/07 12:14:00;;;;;;;7.97;5.40;;;;;;;;;;5052074;28;20068;-77
2023/07/07 12:16:30;;;;;;;8.32;4.97;;;;;;;;;;5047973;28;20072;-77
2023/07/07 12:19:15;;;;;;;8.30;5.07;;;;;;;;;;5048453;28;20047;-77
2023/07/07 12:21:45;;;;;;;7.50;5.07;;;;;;;;;;5043897;28;20084;-77
2023/07/07 12:24:20;;;;;;;7.95;4.97;;;;;;;;;;5054674;28;20507;-76
2023/07/07 12:26:58;;;;;;;9.68;5.45;;;;;;;;;;5054887;28;20128;-79
2023/07/07 12:29:25;;;;;;;10.27;5.35;;;;;;;;;;5052527;28;20437;-78
2023/07/07 12:31:54;;;;;;;7.95;5.47;;;;;;;;;;5053004;28;20059;-78
2023/07/07 12:34:37;;;;;;;8.80;5.45;;;;;;;;;;5048418;28;20052;-78
2023/07/07 12:37:06;;;;;;;7.95;5.28;;;;;;;;;;5047130;28;20116;-79
2023/07/07 12:39:35;;;;;;;15.20;8.57;;;;;;;;;;5059605;28;20354;-79
2023/07/07 12:42:04;;;;;;;11.90;6.50;;;;;;;;;;5062978;28;20063;-79
2023/07/07 12:44:31;;;;;;;12.02;6.88;;;;;;;;;;5041797;28;20045;-79
2023/07/07 12:47:00;;;;;;;18.17;9.02;;;;;;;;;;5056225;28;20041;-79
2023/07/07 12:49:34;;;;;;;22.20;10.65;;;;;;;;;;5066316;28;20063;-80
2023/07/07 12:52:01;;;;;;;9.95;5.78;;;;;;;;;;5063034;28;20059;-80
2023/07/07 12:54:31;;;;;;;37.45;14.65;;;;;;;;;;5054892;28;20481;-77
2023/07/07 12:57:03;;;;;;;9.15;5.45;;;;;;;;;;5048335;28;20080;-78
2023/07/07 12:59:36;;;;;;;9.10;5.03;;;;;;;;;;5049086;28;20140;-79
2023/07/07 13:02:16;;;;;;;15.60;7.95;;;;;;;;;;5052058;28;20103;-78
2023/07/07 13:04:47;;;;;;;;;;;;;;;;;;5050803;28;20036;-77
2023/07/07 13:07:20;;;;;;;17.98;9.05;;;;;;;;;;5051675;28;20023;-79
2023/07/07 13:09:50;;;;;;;10.13;6.18;;;;;;;;;;5059857;28;20037;-80
2023/07/07 13:12:45;;;;;;;14.77;6.80;;;;;;;;;;5065217;28;20052;-83
2023/07/07 13:15:19;;;;;;;18.15;6.90;;;;;;;;;;5018820;28;20049;-78
2023/07/07 13:17:47;;;;;;;15.68;8.38;;;;;;;;;;5051704;28;20040;-77
2023/07/07 13:20:17;;;;;;;13.43;7.00;;;;;;;;;;5047483;28;20041;-77
2023/07/07 13:22:50;;;;;;;8.98;5.28;;;;;;;;;;5050334;28;20131;-77
2023/07/07 13:25:21;;;;;;;10.57;6.57;;;;;;;;;;5040740;28;20041;-78
2023/07/07 13:27:51;;;;;;;7.97;5.35;;;;;;;;;;5043729;28;20115;-77
2023/07/07 13:30:22;;;;;;;9.98;5.75;;;;;;;;;;5053208;28;20045;-78
2023/07/07 13:32:50;;;;;;;9.90;6.00;;;;;;;;;;5050467;28;20125;-77
2023/07/07 13:35:17;;;;;;;9.98;6.07;;;;;;;;;;5047191;28;20120;-77
2023/07/07 13:37:44;;;;;;;9.77;5.85;;;;;;;;;;5046429;28;20134;-77
2023/07/07 13:40:15;;;;;;;8.73;5.32;;;;;;;;;;5052505;28;20045;-77
2023/07/07 13:42:47;;;;;;;9.18;5.55;;;;;;;;;;5051921;28;20109;-77
2023/07/07 13:45:17;;;;;;;8.35;5.85;;;;;;;;;;5050666;28;20054;-77
2023/07/07 13:47:48;;;;;;;9.30;5.65;;;;;;;;;;5052185;28;20065;-77
2023/07/07 13:50:19;;;;;;;9.07;5.72;;;;;;;;;;5052477;28;20128;-76
2023/07/07 13:52:49;;;;;;;8.85;6.38;;;;;;;;;;5050609;28;20068;-77
2023/07/07 13:55:16;;;;;;;7.90;5.57;;;;;;;;;;5050783;28;20063;-76
2023/07/07 13:57:44;;;;;;;10.25;6.15;;;;;;;;;;5050058;28;20132;-76
2023/07/07 14:00:21;;;;;;;8.02;5.50;;;;;;;;;;5051267;28;20068;-76
2023/07/07 14:02:48;;;;;;;10.15;5.97;;;;;;;;;;5050361;28;20041;-77
2023/07/07 14:05:19;;;;;;;8.43;5.32;;;;;;;;;;5050411;28;20041;-78
2023/07/07 14:07:49;;;;;;;9.27;6.70;;;;;;;;;;5167083;22;20093;-60
2023/07/07 14:10:26;;;;;;;8.15;5.47;;;;;;;;;;5043964;28;20091;-60
2023/07/07 14:12:53;;;;;;;9.30;6.32;;;;;;;;;;5038032;28;20052;-61
2023/07/07 14:15:23;;;;;;;8.63;6.00;;;;;;;;;;5035985;28;20041;-62
2023/07/07 14:17:50;;;;;;;10.13;6.38;;;;;;;;;;5037454;28;20114;-60
2023/07/07 14:20:23;;;;;;;8.85;5.82;;;;;;;;;;5034627;28;20299;-58
2023/07/07 14:22:50;;;;;;;8.18;5.72;;;;;;;;;;5036074;28;20049;-60
2023/07/07 14:25:22;;;;;;;8.57;6.28;;;;;;;;;;5035639;28;20304;-59
2023/07/07 14:27:49;;;;;;;8.65;5.82;;;;;;;;;;5036173;28;20076;-60
2023/07/07 14:30:18;;;;;;;8.90;6.53;;;;;;;;;;5040668;28;20068;-61
2023/07/07 14:32:45;;;;;;;8.30;6.15;;;;;;;;;;5049292;28;20049;-58
2023/07/07 14:35:16;;;;;;;10.15;5.93;;;;;;;;;;5032591;28;20045;-59
2023/07/07 14:37:49;;;;;;;9.20;5.85;;;;;;;;;;5030818;28;20132;-58
2023/07/07 14:40:28;;;;;;;16.85;6.47;;;;;;;;;;5038792;28;20099;-60
2023/07/07 14:42:55;;;;;;;8.70;6.30;;;;;;;;;;5045141;28;20099;-60
2023/07/07 14:45:27;;;;;;;8.43;5.80;;;;;;;;;;5046867;28;20440;-60
2023/07/07 14:47:55;;;;;;;8.00;5.32;;;;;;;;;;5039776;28;20049;-61
2023/07/07 14:50:22;;;;;;;8.85;5.60;;;;;;;;;;5029345;28;20498;-60
2023/07/07 14:52:54;;;;;;;9.38;5.97;;;;;;;;;;5031275;28;20061;-59
2023/07/07 14:55:23;;;;;;;8.77;5.90;;;;;;;;;;5039726;28;20553;-58
2023/07/07 14:57:55;;;;;;;8.82;5.95;;;;;;;;;;5071643;28;20135;-59
2023/07/07 15:00:45;;;;;;;8.85;5.70;;;;;;;;;;5072461;28;20056;-60
2023/07/07 15:03:32;;;;;;;7.78;5.68;;;;;;;;;;5035870;28;20482;-59